createdAt,value
2018-04-23T00:01:26.788Z,6.27
2018-04-23T00:03:55.185Z,6.43
2018-04-23T00:06:23.609Z,7.00
2018-04-23T00:08:51.266Z,5.47
2018-04-23T00:11:18.896Z,5.63
2018-04-23T00:13:46.563Z,5.57
2018-04-23T00:16:14.966Z,5.53
2018-04-23T00:18:43.396Z,7.33
2018-04-23T00:21:11.038Z,6.90
2018-04-23T00:23:38.674Z,5.23
2018-04-23T00:26:06.741Z,8.20
2018-04-23T00:28:35.108Z,8.40
2018-04-23T00:31:02.757Z,5.53
2018-04-23T00:33:30.394Z,5.63
2018-04-23T00:35:58.025Z,8.10
2018-04-23T00:38:25.667Z,6.67
2018-04-23T00:40:53.304Z,5.60
2018-04-23T00:43:20.994Z,5.90
2018-04-23T00:45:48.665Z,6.00
2018-04-23T00:48:16.313Z,5.57
2018-04-23T00:50:43.945Z,5.80
2018-04-23T00:53:36.066Z,8.80
2018-04-23T00:56:04.498Z,5.70
2018-04-23T00:58:32.125Z,6.10
2018-04-23T01:00:59.761Z,7.33
2018-04-23T01:03:28.183Z,6.33
2018-04-23T01:05:55.844Z,6.10
2018-04-23T01:08:24.252Z,5.30
2018-04-23T01:10:52.725Z,5.97
2018-04-23T01:13:20.373Z,5.93
2018-04-23T01:15:48.054Z,7.07
2018-04-23T01:18:15.672Z,5.57
2018-04-23T01:20:43.361Z,7.70
2018-04-23T01:23:11.007Z,6.17
2018-04-23T01:25:38.640Z,5.50
2018-04-23T01:28:06.317Z,5.73
2018-04-23T01:30:33.943Z,6.97
2018-04-23T01:33:02.417Z,6.50
2018-04-23T01:35:30.061Z,8.73
2018-04-23T01:37:57.766Z,6.73
2018-04-23T01:40:25.416Z,7.63
2018-04-23T01:42:53.825Z,5.50
2018-04-23T01:45:22.221Z,6.30
2018-04-23T01:47:50.637Z,6.23
2018-04-23T01:50:18.293Z,6.60
2018-04-23T01:52:45.955Z,9.67
2018-04-23T01:55:13.585Z,6.33
2018-04-23T01:57:41.990Z,6.37
2018-04-23T02:00:10.426Z,5.73
2018-04-23T02:02:38.073Z,6.67
2018-04-23T02:05:05.712Z,6.43
2018-04-23T02:07:33.365Z,6.53
2018-04-23T02:10:00.997Z,7.93
2018-04-23T02:12:28.656Z,6.87
2018-04-23T02:14:56.290Z,8.03
2018-04-23T02:17:23.949Z,7.03
2018-04-23T02:19:51.578Z,6.27
2018-04-23T02:22:20.009Z,7.73
2018-04-23T02:24:47.634Z,7.00
2018-04-23T02:27:15.284Z,6.13
2018-04-23T02:29:42.917Z,5.63
2018-04-23T02:32:10.571Z,6.20
2018-04-23T02:34:38.236Z,9.13
2018-04-23T02:37:05.862Z,6.30
2018-04-23T02:39:33.559Z,7.07
2018-04-23T02:42:01.189Z,7.27
2018-04-23T02:44:29.622Z,7.83
2018-04-23T02:46:57.240Z,6.43
2018-04-23T02:49:24.898Z,5.33
2018-04-23T02:51:52.531Z,5.80
2018-04-23T02:54:20.206Z,5.50
2018-04-23T02:56:47.889Z,5.10
2018-04-23T02:59:15.521Z,6.73
2018-04-23T03:01:43.971Z,7.30
2018-04-23T03:04:11.700Z,5.33
2018-04-23T03:06:39.347Z,6.00
2018-04-23T03:09:07.822Z,8.97
2018-04-23T03:11:35.467Z,5.23
2018-04-23T03:14:03.107Z,8.13
2018-04-23T03:16:30.769Z,7.83
2018-04-23T03:18:59.230Z,6.17
2018-04-23T03:21:26.850Z,7.47
2018-04-23T03:23:54.501Z,8.77
2018-04-23T03:26:22.114Z,7.40
2018-04-23T03:28:49.774Z,5.77
2018-04-23T03:31:17.471Z,7.07
2018-04-23T03:33:45.182Z,5.97
2018-04-23T03:36:12.984Z,5.10
2018-04-23T03:38:41.528Z,5.77
2018-04-23T03:41:09.353Z,4.90
2018-04-23T03:43:37.117Z,5.37
2018-04-23T03:46:04.917Z,4.97
2018-04-23T03:48:32.705Z,5.63
2018-04-23T03:51:00.501Z,8.13
2018-04-23T03:53:28.305Z,8.93
2018-04-23T03:55:56.048Z,6.67
2018-04-23T03:58:23.859Z,5.10
2018-04-23T04:00:51.609Z,5.90
2018-04-23T04:03:19.404Z,5.17
2018-04-23T04:05:47.201Z,5.47
2018-04-23T04:08:14.967Z,6.47
2018-04-23T04:10:43.512Z,6.20
2018-04-23T04:13:23.147Z,6.50
2018-04-23T04:16:03.600Z,6.70
2018-04-23T04:18:43.105Z,6.73
2018-04-23T04:21:11.074Z,4.70
2018-04-23T04:23:38.844Z,7.93
2018-04-23T04:26:07.589Z,6.13
2018-04-23T04:28:36.123Z,7.53
2018-04-23T04:31:03.968Z,5.00
2018-04-23T04:33:31.748Z,5.67
2018-04-23T04:35:59.484Z,5.10
2018-04-23T04:38:27.228Z,7.60
2018-04-23T04:40:54.952Z,5.23
2018-04-23T04:43:23.399Z,5.40
2018-04-23T04:45:51.117Z,7.03
2018-04-23T04:48:18.809Z,6.40
2018-04-23T04:50:46.544Z,6.53
2018-04-23T04:53:14.304Z,8.40
2018-04-23T04:55:42.764Z,4.43
2018-04-23T04:58:10.492Z,6.10
2018-04-23T05:00:38.192Z,6.83
2018-04-23T05:03:06.684Z,6.33
2018-04-23T05:05:34.360Z,5.20
2018-04-23T05:08:02.072Z,7.40
2018-04-23T05:10:30.519Z,6.07
2018-04-23T05:12:58.228Z,6.73
2018-04-23T05:15:26.708Z,8.43
2018-04-23T05:17:54.396Z,5.77
2018-04-23T05:20:22.116Z,9.63
2018-04-23T05:22:49.796Z,7.03
2018-04-23T05:25:17.520Z,6.97
2018-04-23T05:27:45.245Z,5.47
2018-04-23T05:30:12.980Z,6.50
2018-04-23T05:32:40.710Z,6.47
2018-04-23T05:35:08.419Z,7.90
2018-04-23T05:37:36.216Z,5.43
2018-04-23T05:40:03.939Z,6.47
2018-04-23T05:42:31.753Z,5.60
2018-04-23T05:45:00.191Z,6.00
2018-04-23T05:47:27.959Z,6.30
2018-04-23T05:49:56.433Z,5.63
2018-04-23T05:52:24.125Z,8.43
2018-04-23T05:54:52.625Z,7.17
2018-04-23T05:57:21.091Z,4.63
2018-04-23T05:59:48.815Z,4.30
2018-04-23T06:02:16.503Z,4.53
2018-04-23T06:04:44.220Z,6.30
2018-04-23T06:07:12.704Z,8.27
2018-04-23T06:09:40.380Z,6.23
2018-04-23T06:12:08.100Z,5.97
2018-04-23T06:14:35.780Z,7.87
2018-04-23T06:17:07.528Z,5.30
2018-04-23T06:19:42.384Z,6.43
2018-04-23T06:22:10.196Z,5.53
2018-04-23T06:24:38.068Z,4.73
2018-04-23T06:27:06.077Z,5.07
2018-04-23T06:29:33.967Z,10.73
2018-04-23T06:32:01.744Z,6.27
2018-04-23T06:34:29.671Z,7.17
2018-04-23T06:37:07.393Z,8.00
2018-04-23T06:39:35.232Z,6.27
2018-04-23T06:42:04.013Z,6.37
2018-04-23T06:44:32.010Z,5.47
2018-04-23T06:47:04.185Z,5.23
2018-04-23T06:49:32.160Z,8.67
2018-04-23T06:52:00.161Z,7.27
2018-04-23T06:54:28.131Z,8.80
2018-04-23T06:56:56.119Z,6.13
2018-04-23T06:59:24.199Z,6.43
2018-04-23T07:01:52.176Z,5.73
2018-04-23T07:04:20.179Z,7.57
2018-04-23T07:06:57.326Z,7.90
2018-04-23T07:09:25.998Z,5.00
2018-04-23T07:11:54.262Z,10.20
2018-04-23T07:14:29.430Z,20.50
2018-04-23T07:16:58.787Z,10.93
2018-04-23T07:19:26.743Z,7.77
2018-04-23T07:21:54.719Z,11.50
2018-04-23T07:24:22.679Z,7.53
2018-04-23T07:26:50.671Z,7.43
2018-04-23T07:29:19.397Z,6.47
2018-04-23T07:31:47.419Z,6.33
2018-04-23T07:34:15.420Z,7.30
2018-04-23T07:36:44.135Z,7.30
2018-04-23T07:39:12.186Z,6.30
2018-04-23T07:41:40.959Z,8.03
2018-04-23T07:44:09.365Z,10.27
2018-04-23T07:46:37.303Z,6.17
2018-04-23T07:49:05.312Z,6.27
2018-04-23T07:51:33.272Z,8.97
2018-04-23T07:54:01.274Z,8.50
2018-04-23T07:56:29.287Z,8.10
2018-04-23T07:58:57.281Z,5.90
2018-04-23T08:01:25.249Z,11.33
2018-04-23T08:03:53.238Z,7.43
2018-04-23T08:06:21.189Z,6.40
2018-04-23T08:08:49.956Z,5.97
2018-04-23T08:11:17.959Z,7.63
2018-04-23T08:13:45.916Z,7.87
2018-04-23T08:16:13.935Z,5.83
2018-04-23T08:18:41.894Z,10.00
2018-04-23T08:21:11.539Z,9.97
2018-04-23T08:23:41.088Z,13.63
2018-04-23T08:26:09.873Z,11.20
2018-04-23T08:28:38.602Z,10.33
2018-04-23T08:31:06.605Z,13.40
2018-04-23T08:33:34.654Z,12.47
2018-04-23T08:36:02.677Z,6.73
2018-04-23T08:38:30.778Z,13.23
2018-04-23T08:40:58.797Z,9.23
2018-04-23T08:43:26.578Z,8.57
2018-04-23T08:45:54.592Z,8.37
2018-04-23T08:48:23.391Z,7.87
2018-04-23T08:50:51.445Z,9.70
2018-04-23T08:53:20.231Z,12.13
2018-04-23T08:55:49.083Z,7.10
2018-04-23T08:58:17.111Z,8.53
2018-04-23T09:00:45.401Z,14.00
2018-04-23T09:03:13.476Z,13.33
2018-04-23T09:05:41.488Z,9.07
2018-04-23T09:08:09.609Z,13.57
2018-04-23T09:10:37.652Z,12.40
2018-04-23T09:13:05.744Z,9.23
2018-04-23T09:15:33.787Z,12.87
2018-04-23T09:18:01.881Z,12.23
2018-04-23T09:20:29.959Z,13.13
2018-04-23T09:22:58.003Z,10.77
2018-04-23T09:25:26.097Z,9.97
2018-04-23T09:27:54.917Z,11.70
2018-04-23T09:30:22.999Z,13.77
2018-04-23T09:32:50.960Z,10.73
2018-04-23T09:35:19.069Z,11.30
2018-04-23T09:37:47.118Z,11.63
2018-04-23T09:40:15.186Z,9.10
2018-04-23T09:42:43.196Z,14.47
2018-04-23T09:45:11.440Z,10.67
2018-04-23T09:47:39.467Z,9.17
2018-04-23T09:50:07.543Z,8.83
2018-04-23T09:52:35.630Z,9.77
2018-04-23T09:55:03.740Z,11.53
2018-04-23T09:57:32.627Z,10.77
2018-04-23T10:00:00.642Z,15.37
2018-04-23T10:02:28.751Z,9.00
2018-04-23T10:04:58.028Z,8.27
2018-04-23T10:07:26.121Z,10.70
2018-04-23T10:09:54.161Z,15.47
2018-04-23T10:12:22.998Z,16.60
2018-04-23T10:14:51.099Z,11.60
2018-04-23T10:17:19.144Z,12.53
2018-04-23T10:19:47.221Z,7.27
2018-04-23T10:22:15.999Z,9.40
2018-04-23T10:24:44.977Z,10.10
2018-04-23T10:27:13.504Z,7.53
2018-04-23T10:29:41.720Z,7.13
2018-04-23T10:32:09.772Z,9.50
2018-04-23T10:34:37.894Z,12.07
2018-04-23T10:37:06.283Z,8.73
2018-04-23T10:39:34.401Z,8.73
2018-04-23T10:42:03.346Z,13.43
2018-04-23T10:47:44.599Z,9.17
2018-04-23T10:50:13.869Z,9.57
2018-04-23T10:52:43.024Z,7.43
2018-04-23T10:55:11.159Z,8.07
2018-04-23T10:57:39.962Z,12.20
2018-04-23T11:00:08.077Z,7.10
2018-04-23T11:02:36.266Z,10.17
2018-04-23T11:08:17.291Z,8.90
2018-04-23T11:10:45.474Z,6.73
2018-04-23T11:13:14.523Z,7.97
2018-04-23T11:15:42.726Z,10.50
2018-04-23T11:18:10.780Z,10.17
2018-04-23T11:20:38.810Z,7.10
2018-04-23T11:23:07.673Z,7.30
2018-04-23T11:25:35.735Z,8.57
2018-04-23T11:28:04.608Z,12.47
2018-04-23T11:30:32.626Z,12.77
2018-04-23T11:33:00.697Z,12.00
2018-04-23T11:35:28.695Z,8.93
2018-04-23T11:37:56.752Z,11.00
2018-04-23T11:40:24.795Z,6.00
2018-04-23T11:42:52.787Z,8.70
2018-04-23T11:45:20.912Z,10.37
2018-04-23T11:47:48.929Z,9.13
2018-04-23T11:50:17.026Z,8.33
2018-04-23T11:52:45.805Z,10.27
2018-04-23T11:55:13.965Z,8.43
2018-04-23T11:58:01.426Z,9.90
2018-04-23T12:00:29.503Z,9.10
2018-04-23T12:02:57.583Z,7.80
2018-04-23T12:05:25.629Z,12.60
2018-04-23T12:07:53.819Z,12.63
2018-04-23T12:10:21.864Z,8.27
2018-04-23T12:12:49.947Z,11.23
2018-04-23T12:15:17.996Z,8.13
2018-04-23T12:17:46.095Z,11.67
2018-04-23T12:20:14.128Z,11.07
2018-04-23T12:22:42.946Z,10.23
2018-04-23T12:25:12.304Z,7.33
2018-04-23T12:27:40.346Z,9.77
2018-04-23T12:30:08.408Z,8.57
2018-04-23T12:32:36.464Z,8.93
2018-04-23T12:35:04.744Z,8.07
2018-04-23T12:37:32.725Z,8.63
2018-04-23T12:40:01.718Z,9.33
2018-04-23T12:42:29.797Z,9.47
2018-04-23T12:44:57.819Z,9.77
2018-04-23T12:47:25.937Z,6.00
2018-04-23T12:49:53.974Z,9.07
2018-04-23T12:52:23.031Z,10.13
2018-04-23T12:54:51.826Z,7.33
2018-04-23T12:57:19.830Z,12.80
2018-04-23T12:59:48.060Z,7.17
2018-04-23T13:02:16.269Z,7.93
2018-04-23T13:04:44.320Z,11.33
2018-04-23T13:07:12.452Z,11.77
2018-04-23T13:09:40.517Z,13.77
2018-04-23T13:12:08.570Z,13.33
2018-04-23T13:14:36.607Z,9.17
2018-04-23T13:17:05.489Z,11.03
2018-04-23T13:19:33.521Z,9.17
2018-04-23T13:22:01.720Z,9.37
2018-04-23T13:24:30.495Z,10.87
2018-04-23T13:26:59.349Z,10.33
2018-04-23T13:29:27.344Z,11.20
2018-04-23T13:31:56.454Z,11.27
2018-04-23T13:34:41.835Z,13.90
2018-04-23T13:37:09.954Z,11.57
2018-04-23T13:39:38.057Z,10.27
2018-04-23T13:42:06.132Z,11.23
2018-04-23T13:44:34.227Z,14.17
2018-04-23T13:47:02.275Z,10.03
2018-04-23T13:49:30.346Z,10.77
2018-04-23T13:51:58.372Z,12.97
2018-04-23T13:54:26.432Z,10.40
2018-04-23T13:56:55.318Z,11.43
2018-04-23T13:59:24.069Z,11.17
2018-04-23T14:01:52.163Z,9.90
2018-04-23T14:04:20.229Z,12.20
2018-04-23T14:06:48.321Z,8.30
2018-04-23T14:09:16.275Z,8.57
2018-04-23T14:11:44.203Z,10.43
2018-04-23T14:14:12.244Z,12.23
2018-04-23T14:16:40.349Z,11.93
2018-04-23T14:19:08.862Z,10.73
2018-04-23T14:21:36.996Z,14.40
2018-04-23T14:24:05.105Z,12.03
2018-04-23T14:26:33.137Z,10.60
2018-04-23T14:29:02.023Z,11.77
2018-04-23T14:31:30.603Z,8.20
2018-04-23T14:33:58.721Z,12.07
2018-04-23T14:36:26.845Z,12.77
2018-04-23T14:38:55.666Z,10.27
2018-04-23T14:41:23.784Z,12.87
2018-04-23T14:43:52.951Z,13.20
2018-04-23T14:46:21.754Z,9.50
2018-04-23T14:48:49.677Z,9.87
2018-04-23T14:51:17.779Z,12.73
2018-04-23T14:53:46.361Z,10.60
2018-04-23T14:56:14.233Z,8.83
2018-04-23T14:58:42.122Z,11.43
2018-04-23T15:01:09.948Z,8.90
2018-04-23T15:03:37.761Z,10.93
2018-04-23T15:06:05.571Z,10.17
2018-04-23T15:08:33.381Z,12.77
2018-04-23T15:11:01.883Z,11.07
2018-04-23T15:13:30.921Z,15.10
2018-04-23T15:15:58.947Z,10.07
2018-04-23T15:18:27.847Z,10.13
2018-04-23T15:20:55.869Z,9.10
2018-04-23T15:23:24.030Z,9.83
2018-04-23T15:25:52.082Z,11.03
2018-04-23T15:28:20.186Z,8.83
2018-04-23T15:30:48.163Z,9.97
2018-04-23T15:33:17.013Z,10.63
2018-04-23T15:35:45.045Z,10.20
2018-04-23T15:38:13.179Z,10.90
2018-04-23T15:40:41.261Z,11.30
2018-04-23T15:43:09.336Z,10.10
2018-04-23T15:45:37.423Z,11.03
2018-04-23T15:48:07.005Z,10.43
2018-04-23T15:50:35.226Z,16.47
2018-04-23T15:53:04.087Z,9.73
2018-04-23T15:55:33.751Z,9.47
2018-04-23T15:58:02.841Z,10.33
2018-04-23T16:00:31.540Z,12.07
2018-04-23T16:03:00.861Z,10.33
2018-04-23T16:05:28.979Z,11.43
2018-04-23T16:07:59.464Z,13.20
2018-04-23T16:10:28.617Z,12.60
2018-04-23T16:12:56.802Z,12.97
2018-04-23T16:15:24.961Z,10.53
2018-04-23T16:17:53.107Z,11.07
2018-04-23T16:20:21.174Z,11.13
2018-04-23T16:22:49.224Z,7.17
2018-04-23T16:25:18.022Z,16.10
2018-04-23T16:27:46.481Z,10.93
2018-04-23T16:30:14.593Z,9.90
2018-04-23T16:32:43.244Z,11.30
2018-04-23T16:35:11.570Z,11.10
2018-04-23T16:37:40.693Z,14.00
2018-04-23T16:40:09.027Z,16.10
2018-04-23T16:42:37.142Z,10.97
2018-04-23T16:45:06.146Z,12.33
2018-04-23T16:47:34.504Z,13.90
2018-04-23T16:50:02.939Z,10.73
2018-04-23T16:52:31.766Z,10.90
2018-04-23T16:55:01.551Z,13.43
2018-04-23T16:57:29.976Z,11.03
2018-04-23T16:59:59.265Z,15.43
2018-04-23T17:02:27.415Z,10.33
2018-04-23T17:04:55.811Z,13.67
2018-04-23T17:07:23.752Z,11.73
2018-04-23T17:09:51.963Z,12.43
2018-04-23T17:12:20.902Z,9.90
2018-04-23T17:14:49.050Z,11.50
2018-04-23T17:17:17.962Z,11.53
2018-04-23T17:19:46.975Z,15.77
2018-04-23T17:22:15.489Z,10.17
2018-04-23T17:24:43.752Z,15.37
2018-04-23T17:27:12.044Z,16.57
2018-04-23T17:29:40.071Z,14.03
2018-04-23T17:32:08.242Z,11.73
2018-04-23T17:34:36.408Z,13.73
2018-04-23T17:37:04.619Z,13.07
2018-04-23T17:39:32.947Z,13.87
2018-04-23T17:42:02.008Z,11.87
2018-04-23T17:44:30.213Z,13.00
2018-04-23T17:46:58.875Z,15.77
2018-04-23T17:49:27.484Z,13.27
2018-04-23T17:51:56.025Z,16.37
2018-04-23T17:54:24.977Z,12.07
2018-04-23T17:56:53.102Z,14.97
2018-04-23T17:59:21.396Z,13.57
2018-04-23T18:01:50.804Z,13.47
2018-04-23T18:04:18.937Z,13.57
2018-04-23T18:06:46.827Z,10.83
2018-04-23T18:09:15.830Z,14.90
2018-04-23T18:11:43.535Z,8.67
2018-04-23T18:14:11.568Z,11.63
2018-04-23T18:16:40.323Z,7.93
2018-04-23T18:19:08.603Z,9.43
2018-04-23T18:21:36.705Z,6.73
2018-04-23T18:24:04.733Z,12.93
2018-04-23T18:29:34.247Z,7.23
2018-04-23T18:38:02.091Z,4.80
2018-04-23T18:40:30.420Z,5.37
2018-04-23T18:42:59.259Z,3.77
2018-04-23T18:45:27.321Z,5.77
2018-04-23T18:47:55.458Z,6.27
2018-04-23T18:50:23.512Z,4.93
2018-04-23T18:52:51.580Z,7.90
2018-04-23T18:55:19.694Z,2.97
2018-04-23T18:57:47.714Z,5.60
2018-04-23T19:00:15.832Z,4.07
2018-04-23T19:02:44.614Z,5.63
2018-04-23T19:05:12.694Z,3.60
2018-04-23T19:07:40.720Z,2.30
2018-04-23T19:10:08.802Z,4.47
2018-04-23T19:12:36.949Z,5.70
2018-04-23T19:15:05.075Z,5.40
2018-04-23T19:17:34.014Z,3.07
2018-04-23T19:20:02.216Z,4.00
2018-04-23T19:22:31.339Z,3.67
2018-04-23T19:24:59.724Z,3.47
2018-04-23T19:27:27.855Z,3.50
2018-04-23T19:29:55.902Z,4.63
2018-04-23T19:32:24.034Z,4.07
2018-04-23T19:34:52.093Z,6.13
2018-04-23T19:37:20.167Z,5.37
2018-04-23T19:39:48.251Z,3.57
2018-04-23T19:42:17.136Z,4.83
2018-04-23T19:44:45.988Z,5.53
2018-04-23T19:47:13.989Z,4.10
2018-04-23T19:49:42.119Z,5.60
2018-04-23T19:52:10.168Z,4.47
2018-04-23T19:57:49.611Z,4.60
2018-04-23T20:00:17.707Z,2.70
2018-04-23T20:02:45.783Z,3.97
2018-04-23T20:05:13.841Z,3.23
2018-04-23T20:07:42.940Z,2.93
2018-04-23T20:10:12.363Z,5.50
2018-04-23T20:12:40.891Z,6.07
2018-04-23T20:15:08.891Z,4.90
2018-04-23T20:17:37.739Z,6.73
2018-04-23T20:20:05.949Z,4.73
2018-04-23T20:22:33.976Z,5.67
2018-04-23T20:25:02.081Z,6.93
2018-04-23T20:27:30.515Z,5.13
2018-04-23T20:29:58.616Z,4.43
2018-04-23T20:32:27.051Z,5.07
2018-04-23T20:34:55.174Z,6.00
2018-04-23T20:37:24.023Z,5.00
2018-04-23T20:39:52.983Z,7.27
2018-04-23T20:42:21.834Z,6.53
2018-04-23T20:44:49.951Z,9.33
2018-04-23T20:47:18.132Z,9.77
2018-04-23T20:49:46.790Z,7.53
2018-04-23T20:52:14.967Z,11.23
2018-04-23T20:54:43.020Z,10.03
2018-04-23T20:57:11.129Z,11.37
2018-04-23T20:59:39.236Z,9.50
2018-04-23T21:02:07.328Z,12.13
2018-04-23T21:04:35.420Z,12.93
2018-04-23T21:07:03.450Z,8.83
2018-04-23T21:09:32.500Z,8.17
2018-04-23T21:12:00.413Z,12.17
2018-04-23T21:14:29.324Z,11.60
2018-04-23T21:16:57.864Z,11.67
2018-04-23T21:19:26.441Z,10.83
2018-04-23T21:21:54.470Z,10.77
2018-04-23T21:24:22.659Z,15.73
2018-04-23T21:26:50.692Z,12.87
2018-04-23T21:29:18.922Z,11.67
2018-04-23T21:31:47.678Z,10.73
2018-04-23T21:34:15.744Z,10.20
2018-04-23T21:36:43.776Z,10.07
2018-04-23T21:39:11.876Z,8.97
2018-04-23T21:41:40.090Z,8.67
2018-04-23T21:44:08.144Z,11.67
2018-04-23T21:46:36.215Z,9.97
2018-04-23T21:49:04.260Z,11.73
2018-04-23T21:51:32.355Z,11.10
2018-04-23T21:54:00.349Z,13.53
2018-04-23T21:56:28.434Z,13.90
2018-04-23T21:58:56.514Z,13.53
2018-04-23T22:01:25.321Z,15.33
2018-04-23T22:03:53.480Z,13.57
2018-04-23T22:06:22.796Z,11.53
2018-04-23T22:11:42.312Z,12.73
2018-04-23T22:14:10.302Z,10.47
2018-04-23T22:16:38.187Z,13.30
2018-04-23T22:19:06.116Z,11.23
2018-04-23T22:21:34.823Z,12.47
2018-04-23T22:24:02.735Z,14.50
2018-04-23T22:26:30.634Z,17.07
2018-04-23T22:28:59.295Z,15.70
2018-04-23T22:31:27.213Z,12.17
2018-04-23T22:33:55.076Z,17.43
2018-04-23T22:36:23.003Z,13.60
2018-04-23T22:38:51.725Z,13.40
2018-04-23T22:41:21.392Z,17.53
2018-04-23T22:43:49.311Z,14.93
2018-04-23T22:46:17.974Z,15.73
2018-04-23T22:48:45.922Z,16.43
2018-04-23T22:51:14.562Z,20.50
2018-04-23T22:53:42.503Z,14.40
2018-04-23T22:56:11.148Z,16.27
2018-04-23T22:58:39.082Z,16.90
2018-04-23T23:01:06.919Z,13.90
2018-04-23T23:03:35.651Z,13.23
2018-04-23T23:06:03.558Z,15.90
2018-04-23T23:08:31.575Z,19.03
2018-04-23T23:10:59.534Z,12.87
2018-04-23T23:13:27.349Z,15.27
2018-04-23T23:15:55.258Z,17.17
2018-04-23T23:18:23.120Z,14.03
2018-04-23T23:20:51.821Z,14.77
2018-04-23T23:23:19.723Z,16.60
2018-04-23T23:25:47.590Z,13.60
2018-04-23T23:28:26.202Z,14.27
2018-04-23T23:30:54.122Z,18.23
2018-04-23T23:33:22.039Z,18.13
2018-04-23T23:35:49.880Z,13.63
2018-04-23T23:38:17.767Z,15.07
2018-04-23T23:40:45.597Z,18.40
2018-04-23T23:43:13.496Z,16.60
2018-04-23T23:45:41.370Z,20.00
2018-04-23T23:48:09.273Z,17.50
2018-04-23T23:50:37.989Z,18.93
2018-04-23T23:53:05.922Z,17.67
2018-04-23T23:55:34.611Z,17.43
2018-04-23T23:58:03.559Z,17.50
